sensor_id;sensor_type;location;lat;lon;timestamp;pressure;altitude;pressure_sealevel;temperature;humidity
56632;BME280;42503;39.928;-75.152;2023-08-24T00:08:57;101671.84;;;27.14;47.81
56632;BME280;42503;39.928;-75.152;2023-08-24T00:18:58;101670.94;;;27.18;47.55
56632;BME280;42503;39.928;-75.152;2023-08-24T00:29:00;101662.28;;;27.15;47.55
56632;BME280;42503;39.928;-75.152;2023-08-24T00:39:04;101668.34;;;27.22;47.43
56632;BME280;42503;39.928;-75.152;2023-08-24T00:49:05;101683.66;;;27.29;47.32
56632;BME280;42503;39.928;-75.152;2023-08-24T00:59:07;101697.19;;;27.27;47.26
56632;BME280;42503;39.928;-75.152;2023-08-24T01:09:09;101722.34;;;27.19;47.14
56632;BME280;42503;39.928;-75.152;2023-08-24T01:19:25;101747.09;;;27.35;46.98
56632;BME280;42503;39.928;-75.152;2023-08-24T01:29:29;101757.69;;;27.39;47.10
56632;BME280;42503;39.928;-75.152;2023-08-24T01:40:23;101753.22;;;27.38;47.30
56632;BME280;42503;39.928;-75.152;2023-08-24T01:50:07;101745.53;;;27.43;47.36
56632;BME280;42503;39.928;-75.152;2023-08-24T02:00:08;101714.13;;;27.41;47.33
56632;BME280;42503;39.928;-75.152;2023-08-24T02:10:10;101710.16;;;27.42;47.40
56632;BME280;42503;39.928;-75.152;2023-08-24T02:20:12;101690.94;;;27.49;47.73
56632;BME280;42503;39.928;-75.152;2023-08-24T02:30:14;101660.00;;;27.49;47.68
56632;BME280;42503;39.928;-75.152;2023-08-24T02:40:15;101682.69;;;27.53;47.91
56632;BME280;42503;39.928;-75.152;2023-08-24T02:50:17;101676.56;;;27.51;47.82
56632;BME280;42503;39.928;-75.152;2023-08-24T03:00:24;101686.03;;;27.55;48.22
56632;BME280;42503;39.928;-75.152;2023-08-24T03:10:25;101672.09;;;27.50;48.50
56632;BME280;42503;39.928;-75.152;2023-08-24T03:20:26;101689.59;;;27.60;48.47
56632;BME280;42503;39.928;-75.152;2023-08-24T03:30:28;101707.97;;;27.20;46.86
56632;BME280;42503;39.928;-75.152;2023-08-24T03:40:30;101706.22;;;26.68;46.40
56632;BME280;42503;39.928;-75.152;2023-08-24T03:50:31;101718.84;;;26.46;45.41
56632;BME280;42503;39.928;-75.152;2023-08-24T04:00:32;101695.25;;;26.23;44.94
56632;BME280;42503;39.928;-75.152;2023-08-24T04:10:34;101682.53;;;26.07;45.18
56632;BME280;42503;39.928;-75.152;2023-08-24T04:20:35;101695.25;;;25.99;45.03
56632;BME280;42503;39.928;-75.152;2023-08-24T04:30:37;101696.84;;;25.81;44.52
56632;BME280;42503;39.928;-75.152;2023-08-24T04:50:47;101682.66;;;25.68;47.10
56632;BME280;42503;39.928;-75.152;2023-08-24T05:00:50;101686.53;;;26.01;50.77
56632;BME280;42503;39.928;-75.152;2023-08-24T05:10:51;101673.66;;;26.24;51.02
56632;BME280;42503;39.928;-75.152;2023-08-24T05:20:53;101668.06;;;26.43;50.69
56632;BME280;42503;39.928;-75.152;2023-08-24T05:30:55;101668.50;;;26.55;50.41
56632;BME280;42503;39.928;-75.152;2023-08-24T05:40:57;101668.66;;;26.64;50.24
56632;BME280;42503;39.928;-75.152;2023-08-24T05:50:58;101657.13;;;26.65;50.01
56632;BME280;42503;39.928;-75.152;2023-08-24T06:00:59;101686.41;;;26.78;50.11
56632;BME280;42503;39.928;-75.152;2023-08-24T06:11:01;101657.44;;;26.82;49.83
56632;BME280;42503;39.928;-75.152;2023-08-24T06:21:02;101627.38;;;26.83;49.65
56632;BME280;42503;39.928;-75.152;2023-08-24T06:31:04;101635.84;;;26.97;49.67
56632;BME280;42503;39.928;-75.152;2023-08-24T06:41:05;101641.38;;;27.02;49.55
56632;BME280;42503;39.928;-75.152;2023-08-24T06:51:07;101633.03;;;26.97;49.63
56632;BME280;42503;39.928;-75.152;2023-08-24T07:01:08;101642.44;;;27.06;49.60
56632;BME280;42503;39.928;-75.152;2023-08-24T07:11:09;101641.88;;;27.09;49.34
56632;BME280;42503;39.928;-75.152;2023-08-24T07:21:11;101633.44;;;27.09;49.52
56632;BME280;42503;39.928;-75.152;2023-08-24T07:31:18;101613.69;;;27.14;49.50
56632;BME280;42503;39.928;-75.152;2023-08-24T07:41:19;101588.91;;;27.16;49.32
56632;BME280;42503;39.928;-75.152;2023-08-24T07:51:26;101597.25;;;27.21;49.35
56632;BME280;42503;39.928;-75.152;2023-08-24T08:01:27;101591.63;;;27.21;49.34
56632;BME280;42503;39.928;-75.152;2023-08-24T08:11:29;101570.84;;;27.22;49.31
56632;BME280;42503;39.928;-75.152;2023-08-24T08:21:31;101554.59;;;27.19;49.40
56632;BME280;42503;39.928;-75.152;2023-08-24T08:31:32;101569.09;;;27.26;49.18
56632;BME280;42503;39.928;-75.152;2023-08-24T08:41:42;101560.72;;;27.21;49.14
56632;BME280;42503;39.928;-75.152;2023-08-24T08:51:44;101565.13;;;27.27;49.22
56632;BME280;42503;39.928;-75.152;2023-08-24T09:01:45;101569.59;;;27.28;49.39
56632;BME280;42503;39.928;-75.152;2023-08-24T09:11:51;101579.41;;;27.31;49.18
56632;BME280;42503;39.928;-75.152;2023-08-24T09:21:57;101556.06;;;27.30;49.35
56632;BME280;42503;39.928;-75.152;2023-08-24T09:31:58;101567.53;;;27.34;49.16
56632;BME280;42503;39.928;-75.152;2023-08-24T09:42:00;101566.69;;;27.33;49.42
56632;BME280;42503;39.928;-75.152;2023-08-24T09:52:08;101556.06;;;27.30;49.43
56632;BME280;42503;39.928;-75.152;2023-08-24T10:02:16;101566.38;;;27.35;49.24
56632;BME280;42503;39.928;-75.152;2023-08-24T10:12:23;101563.56;;;27.35;49.38
56632;BME280;42503;39.928;-75.152;2023-08-24T10:22:26;101573.34;;;27.38;49.64
56632;BME280;42503;39.928;-75.152;2023-08-24T10:32:28;101568.56;;;27.38;49.45
56632;BME280;42503;39.928;-75.152;2023-08-24T10:42:46;101581.06;;;27.32;49.64
56632;BME280;42503;39.928;-75.152;2023-08-24T10:52:47;101606.47;;;27.41;49.31
56632;BME280;42503;39.928;-75.152;2023-08-24T11:02:50;101624.47;;;27.40;49.83
56632;BME280;42503;39.928;-75.152;2023-08-24T11:23:05;101616.88;;;27.40;49.88
56632;BME280;42503;39.928;-75.152;2023-08-24T11:33:07;101621.66;;;27.40;49.71
56632;BME280;42503;39.928;-75.152;2023-08-24T11:43:09;101620.00;;;27.39;49.91
56632;BME280;42503;39.928;-75.152;2023-08-24T11:53:10;101635.69;;;27.40;49.88
56632;BME280;42503;39.928;-75.152;2023-08-24T12:03:12;101636.25;;;27.42;49.76
56632;BME280;42503;39.928;-75.152;2023-08-24T12:13:14;101641.88;;;27.42;49.61
56632;BME280;42503;39.928;-75.152;2023-08-24T12:23:15;101641.88;;;27.42;49.68
56632;BME280;42503;39.928;-75.152;2023-08-24T12:33:27;101652.06;;;27.38;49.72
56632;BME280;42503;39.928;-75.152;2023-08-24T12:43:28;101676.75;;;27.41;49.79
56632;BME280;42503;39.928;-75.152;2023-08-24T12:53:29;101675.59;;;27.42;49.63
56632;BME280;42503;39.928;-75.152;2023-08-24T13:03:34;101695.78;;;27.44;49.70
56632;BME280;42503;39.928;-75.152;2023-08-24T13:13:36;101692.13;;;27.43;49.82
56632;BME280;42503;39.928;-75.152;2023-08-24T13:23:38;101706.41;;;27.47;49.97
56632;BME280;42503;39.928;-75.152;2023-08-24T13:33:39;101701.31;;;27.49;49.87
56632;BME280;42503;39.928;-75.152;2023-08-24T13:43:43;101709.75;;;27.49;49.83
56632;BME280;42503;39.928;-75.152;2023-08-24T13:53:48;101716.75;;;27.51;49.87
56632;BME280;42503;39.928;-75.152;2023-08-24T14:03:49;101691.75;;;27.17;47.40
56632;BME280;42503;39.928;-75.152;2023-08-24T14:13:50;101698.03;;;26.71;47.08
56632;BME280;42503;39.928;-75.152;2023-08-24T14:23:52;101685.47;;;26.45;46.43
56632;BME280;42503;39.928;-75.152;2023-08-24T14:33:56;101658.59;;;26.15;46.02
56632;BME280;42503;39.928;-75.152;2023-08-24T14:43:58;101671.88;;;26.09;46.39
56632;BME280;42503;39.928;-75.152;2023-08-24T14:53:59;101655.75;;;25.96;46.26
56632;BME280;42503;39.928;-75.152;2023-08-24T15:04:06;101653.66;;;25.82;45.58
56632;BME280;42503;39.928;-75.152;2023-08-24T15:14:10;101657.13;;;25.69;46.29
56632;BME280;42503;39.928;-75.152;2023-08-24T15:24:14;101657.81;;;25.56;46.33
56632;BME280;42503;39.928;-75.152;2023-08-24T15:34:16;101633.84;;;25.45;45.76
56632;BME280;42503;39.928;-75.152;2023-08-24T15:44:17;101633.41;;;25.32;46.18
56632;BME280;42503;39.928;-75.152;2023-08-24T15:54:19;101615.84;;;25.51;50.76
56632;BME280;42503;39.928;-75.152;2023-08-24T16:04:24;101591.50;;;25.75;52.15
56632;BME280;42503;39.928;-75.152;2023-08-24T16:14:25;101615.91;;;25.99;51.96
56632;BME280;42503;39.928;-75.152;2023-08-24T16:24:26;101615.19;;;26.12;51.61
56632;BME280;42503;39.928;-75.152;2023-08-24T16:34:28;101609.19;;;26.19;51.72
56632;BME280;42503;39.928;-75.152;2023-08-24T16:44:30;101600.72;;;26.43;52.13
56632;BME280;42503;39.928;-75.152;2023-08-24T16:54:31;101593.84;;;26.54;52.03
56632;BME280;42503;39.928;-75.152;2023-08-24T17:04:36;101593.09;;;26.67;51.64
56632;BME280;42503;39.928;-75.152;2023-08-24T17:14:37;101586.75;;;26.75;51.44
56632;BME280;42503;39.928;-75.152;2023-08-24T17:24:39;101562.56;;;26.79;51.33
56632;BME280;42503;39.928;-75.152;2023-08-24T17:34:40;101565.81;;;26.86;51.10
56632;BME280;42503;39.928;-75.152;2023-08-24T17:44:42;101551.19;;;26.90;50.84
56632;BME280;42503;39.928;-75.152;2023-08-24T17:54:43;101534.31;;;26.90;50.84
56632;BME280;42503;39.928;-75.152;2023-08-24T18:04:44;101534.13;;;27.00;50.44
56632;BME280;42503;39.928;-75.152;2023-08-24T18:14:47;101533.59;;;26.98;50.50
56632;BME280;42503;39.928;-75.152;2023-08-24T18:24:48;101535.19;;;27.04;50.29
56632;BME280;42503;39.928;-75.152;2023-08-24T18:34:49;101533.97;;;27.10;50.28
56632;BME280;42503;39.928;-75.152;2023-08-24T18:44:53;101515.88;;;27.16;50.11
56632;BME280;42503;39.928;-75.152;2023-08-24T18:54:55;101501.22;;;27.19;50.13
56632;BME280;42503;39.928;-75.152;2023-08-24T19:04:57;101511.31;;;27.20;50.04
56632;BME280;42503;39.928;-75.152;2023-08-24T19:14:58;101506.22;;;27.22;50.02
56632;BME280;42503;39.928;-75.152;2023-08-24T19:25:00;101508.38;;;27.25;50.33
56632;BME280;42503;39.928;-75.152;2023-08-24T19:35:06;101498.41;;;27.33;50.19
56632;BME280;42503;39.928;-75.152;2023-08-24T19:45:08;101486.25;;;27.38;50.24
56632;BME280;42503;39.928;-75.152;2023-08-24T19:55:09;101475.50;;;27.40;50.24
56632;BME280;42503;39.928;-75.152;2023-08-24T20:05:11;101461.16;;;27.41;50.28
56632;BME280;42503;39.928;-75.152;2023-08-24T20:15:12;101467.00;;;27.45;50.33
56632;BME280;42503;39.928;-75.152;2023-08-24T20:25:15;101464.69;;;27.47;50.39
56632;BME280;42503;39.928;-75.152;2023-08-24T20:35:17;101461.25;;;27.50;50.29
56632;BME280;42503;39.928;-75.152;2023-08-24T20:45:19;101457.91;;;27.48;50.72
56632;BME280;42503;39.928;-75.152;2023-08-24T20:55:20;101432.81;;;27.51;50.59
56632;BME280;42503;39.928;-75.152;2023-08-24T21:05:21;101427.00;;;27.34;51.17
56632;BME280;42503;39.928;-75.152;2023-08-24T21:15:23;101425.03;;;27.34;51.30
56632;BME280;42503;39.928;-75.152;2023-08-24T21:25:24;101441.38;;;27.32;51.33
56632;BME280;42503;39.928;-75.152;2023-08-24T21:35:25;101424.72;;;27.36;51.44
56632;BME280;42503;39.928;-75.152;2023-08-24T21:45:27;101427.22;;;27.38;51.23
56632;BME280;42503;39.928;-75.152;2023-08-24T21:55:29;101436.47;;;27.38;51.32
56632;BME280;42503;39.928;-75.152;2023-08-24T22:05:30;101438.13;;;27.39;51.43
56632;BME280;42503;39.928;-75.152;2023-08-24T22:15:31;101448.88;;;27.37;51.40
56632;BME280;42503;39.928;-75.152;2023-08-24T22:25:33;101438.03;;;27.30;51.28
56632;BME280;42503;39.928;-75.152;2023-08-24T22:35:35;101434.00;;;27.36;51.37
56632;BME280;42503;39.928;-75.152;2023-08-24T22:45:40;101425.13;;;27.29;51.44
56632;BME280;42503;39.928;-75.152;2023-08-24T22:55:46;101433.16;;;27.36;51.26
56632;BME280;42503;39.928;-75.152;2023-08-24T23:05:47;101467.19;;;27.34;51.66
56632;BME280;42503;39.928;-75.152;2023-08-24T23:15:49;101452.50;;;27.38;51.24
56632;BME280;42503;39.928;-75.152;2023-08-24T23:25:51;101460.44;;;27.35;51.30
56632;BME280;42503;39.928;-75.152;2023-08-24T23:35:52;101451.25;;;27.30;51.39
56632;BME280;42503;39.928;-75.152;2023-08-24T23:45:53;101482.59;;;27.37;51.22
56632;BME280;42503;39.928;-75.152;2023-08-24T23:55:55;101476.16;;;27.36;51.44
